Data for 05/22/2017

Time Sea-Level Adjusted Pressure Absolute Pressure Temperature Relative Humidity Dew Point   
(mb) (inHg) (mb) (inHg) (C) (F) (%) (C) (F)
00:05 1024 30.24 854 25.22 8.4 47.1 54 -0.4 31.2
00:10 1024 30.24 854 25.22 8.2 46.7 54 -0.5 31.1
00:15 1024 30.24 854 25.22 8 46.4 55 -0.4 31.4
00:20 1024 30.24 854 25.22 7.9 46.3 55 -0.4 31.2
00:25 1024 30.24 854 25.22 8 46.3 55 -0.5 31
00:30 1024 30.24 854 25.22 8 46.4 54 -0.7 30.8
00:35 1024 30.24 854 25.22 8.3 46.9 53 -0.7 30.7
00:40 1024 30.24 854 25.22 8.4 47 53 -0.6 30.9
00:45 1025 30.27 854 25.22 8.3 47 53 -0.6 30.9
00:50 1024 30.24 854 25.22 8.4 47.1 52 -0.9 30.4
00:55 1024 30.24 854 25.22 8.6 47.4 52 -0.7 30.7
01:00 1025 30.27 854 25.22 8.6 47.6 52 -0.7 30.7
01:05 1025 30.27 854 25.22 8.7 47.7 51 -0.8 30.6
01:10 1025 30.27 854 25.22 8.6 47.5 52 -0.6 30.9
01:15 1025 30.27 854 25.22 8.5 47.3 53 -0.6 30.9
01:20 1025 30.27 854 25.22 8.4 47.1 53 -0.5 31.1
01:25 1025 30.27 854 25.22 8.2 46.8 54 -0.4 31.2
01:30 1025 30.27 854 25.22 8.1 46.6 55 -0.5 31.1
01:35 1024 30.24 854 25.22 8.1 46.6 53 -0.8 30.6
01:40 1024 30.24 854 25.22 8.4 47.1 52 -1 30.2
01:45 1024 30.24 854 25.22 8.8 47.8 50 -1.2 29.9
01:50 1024 30.24 854 25.22 9 48.2 50 -0.7 30.8
01:55 1024 30.24 854 25.22 8.8 47.9 51 -0.9 30.5
02:00 1024 30.24 854 25.22 8.8 47.8 52 -0.5 31
02:05 1024 30.24 854 25.22 8.6 47.4 52 -0.6 30.9
02:10 1024 30.24 854 25.22 8.5 47.3 53 -0.5 31.1
02:15 1024 30.24 854 25.22 8.3 47 54 -0.5 31.2
02:20 1024 30.24 854 25.22 8.2 46.7 54 -0.5 31.2
02:25 1024 30.24 854 25.22 8.1 46.6 54 -0.5 31.1
02:30 1024 30.24 854 25.22 8.1 46.6 55 -0.5 31.2
02:35 1024 30.24 854 25.22 8.1 46.6 54 -0.5 31.1
02:40 1024 30.24 854 25.22 8.1 46.6 56 -0.2 31.7
02:45 1024 30.24 854 25.22 7.9 46.2 56 -0.2 31.6
02:50 1024 30.24 854 25.22 7.9 46.1 56 -0.4 31.3
02:55 1024 30.24 854 25.22 8 46.4 55 -0.3 31.4
03:00 1024 30.24 854 25.22 7.8 46.1 56 -0.3 31.5
03:05 1024 30.24 854 25.22 7.7 45.9 57 -0.3 31.5
03:10 1024 30.24 854 25.22 7.6 45.7 58 -0.2 31.7
03:15 1024 30.24 854 25.22 7.5 45.5 59 -0.1 31.9
03:20 1024 30.24 854 25.22 7.4 45.4 58 -0.2 31.7
03:25 1024 30.24 854 25.22 7.4 45.4 59 -0.1 31.8
03:30 1024 30.24 854 25.22 7.5 45.5 58 -0.3 31.5
03:35 1024 30.24 854 25.22 7.6 45.7 57 -0.4 31.3
03:40 1024 30.24 854 25.22 7.7 45.9 57 -0.1 31.7
03:45 1024 30.24 854 25.22 7.7 45.8 57 -0.2 31.7
03:50 1024 30.24 854 25.22 7.6 45.7 58 -0.1 31.8
03:55 1024 30.24 853 25.19 7.6 45.6 58 -0.1 31.9
04:00 1024 30.24 853 25.19 7.7 45.8 58 -0.1 31.8
04:05 1024 30.24 853 25.19 7.8 46 57 -0.1 31.8
04:10 1024 30.24 853 25.19 7.8 46 57 -0.1 31.8
04:15 1024 30.24 853 25.19 7.8 46 58 0 32
04:20 1024 30.24 853 25.19 7.8 46.1 58 0 32.1
04:25 1024 30.24 853 25.19 7.8 46 58 0.1 32.2
04:30 1024 30.24 853 25.19 7.6 45.8 59 0.1 32.1
04:35 1024 30.24 853 25.19 7.7 45.8 58 -0.1 31.9
04:40 1024 30.24 853 25.19 7.8 46 58 -0.1 31.9
04:45 1024 30.24 853 25.19 7.8 46.1 57 -0.2 31.6
04:50 1024 30.24 853 25.19 7.9 46.2 57 -0.1 31.8
04:55 1024 30.24 853 25.19 7.9 46.2 56 -0.4 31.3
05:00 1024 30.24 853 25.19 8.2 46.8 55 -0.3 31.5
05:05 1024 30.24 853 25.19 8.1 46.7 56 -0 31.9
05:10 1024 30.24 853 25.19 7.9 46.3 56 -0.2 31.6
05:15 1024 30.24 853 25.19 7.9 46.2 56 -0.3 31.4
05:20 1024 30.24 853 25.19 7.9 46.3 57 -0.1 31.7
05:25 1024 30.24 853 25.19 7.8 46.1 57 -0.2 31.6
05:30 1024 30.24 853 25.19 7.7 45.9 57 -0.2 31.7
05:35 1024 30.24 853 25.19 7.5 45.5 59 -0 32
05:40 1024 30.24 853 25.19 7.3 45.2 58 -0.4 31.3
05:45 1024 30.24 853 25.19 7.5 45.5 57 -0.4 31.3
05:50 1024 30.24 854 25.22 7.6 45.6 58 -0.1 31.8
05:55 1024 30.24 853 25.19 7.5 45.6 56 -0.7 30.7
06:00 1024 30.24 854 25.22 8 46.3 56 -0.1 31.8
06:05 1024 30.24 854 25.22 8 46.3 57 -0.1 31.8
06:10 1024 30.24 854 25.22 7.9 46.2 56 -0.3 31.5
06:15 1025 30.27 854 25.22 7.8 46 58 0 32.1
06:20 1025 30.27 854 25.22 7.6 45.7 57 -0.3 31.4
06:25 1025 30.27 854 25.22 7.6 45.6 58 -0.2 31.6
06:30 1025 30.27 854 25.22 7.6 45.6 57 -0.4 31.3
06:35 1025 30.27 854 25.22 7.6 45.6 58 -0.1 31.7
06:40 1025 30.27 854 25.22 7.6 45.7 59 0.1 32.2
06:45 1025 30.27 854 25.22 7.6 45.7 60 0.3 32.5
06:50 1025 30.27 854 25.22 7.8 46.1 58 0 32.1
06:55 1025 30.27 854 25.22 8.3 46.9 57 0.2 32.3
07:00 1025 30.27 854 25.22 8.6 47.4 55 0.1 32.2
07:05 1025 30.27 854 25.22 8.7 47.6 56 0.4 32.8
07:10 1025 30.27 854 25.22 8.8 47.8 56 0.6 33
07:15 1025 30.27 854 25.22 9 48.3 56 0.7 33.2
07:20 1025 30.27 854 25.22 9.4 48.9 55 0.8 33.4
07:25 1025 30.27 854 25.22 9.7 49.4 55 1.1 33.9
07:30 1025 30.27 854 25.22 10.2 50.3 54 1.3 34.4
07:35 1025 30.27 854 25.22 10.7 51.3 52 1.3 34.3
07:40 1025 30.27 854 25.22 10.5 50.8 52 1.1 33.9
07:45 1025 30.27 854 25.22 10.8 51.5 51 1 33.8
07:50 1025 30.27 854 25.22 11.2 52.1 50 1.3 34.4
07:55 1025 30.27 854 25.22 11.5 52.7 49 1.2 34.1
08:00 1025 30.27 854 25.22 11.8 53.3 48 1.3 34.4
08:05 1025 30.27 854 25.22 12.3 54.1 47 1.3 34.4
08:10 1025 30.27 854 25.22 12 53.6 48 1.5 34.7
08:15 1025 30.27 854 25.22 11.8 53.3 47 0.9 33.6
08:20 1025 30.27 854 25.22 12 53.6 45 0.5 32.9
08:25 1025 30.27 854 25.22 12.5 54.5 45 0.8 33.5
08:30 1025 30.27 854 25.22 12.4 54.3 43 0.3 32.6
08:35 1025 30.27 854 25.22 12.7 54.9 39 -0.9 30.4
08:40 1025 30.27 854 25.22 12.5 54.6 40 -0.8 30.6
08:45 1025 30.27 854 25.22 12.8 55 39 -0.9 30.3
08:50 1025 30.27 854 25.22 13 55.4 41 0.2 32.3
08:55 1025 30.27 854 25.22 13 55.4 42 0.5 32.9
09:00 1025 30.27 854 25.22 13.2 55.7 41 0.3 32.5
09:05 1025 30.27 854 25.22 13.3 56 38 -0.6 31
09:10 1025 30.27 854 25.22 13.5 56.3 38 -0.4 31.2
09:15 1025 30.27 854 25.22 13.5 56.3 38 -0.5 31.1
09:20 1025 30.27 854 25.22 14 57.1 35 -1 30.2
09:25 1025 30.27 854 25.22 14.8 58.6 34 -1 30.2
09:30 1025 30.27 854 25.22 14.8 58.7 34 -0.6 30.9
09:35 1025 30.27 854 25.22 14.7 58.5 34 -0.9 30.4
09:40 1025 30.27 854 25.22 14.8 58.6 33 -1.3 29.6
09:45 1025 30.27 854 25.22 14.4 57.9 34 -1 30.2
09:50 1025 30.27 854 25.22 14.6 58.2 33 -1.5 29.4
09:55 1025 30.27 854 25.22 15.7 60.3 32 -1 30.1
10:00 1025 30.27 854 25.22 16 60.8 31 -1.1 30
10:05 1025 30.27 854 25.22 16.5 61.7 30 -0.9 30.3
10:10 1025 30.27 854 25.22 16.9 62.4 30 -0.7 30.8
10:15 1025 30.27 854 25.22 17.1 62.8 29 -1 30.2
10:20 1025 30.27 854 25.22 16.9 62.4 31 -0.3 31.4
10:25 1025 30.27 854 25.22 16.1 61 30 -1.2 29.9
10:30 1025 30.27 854 25.22 16.2 61.2 31 -0.9 30.5
10:35 1025 30.27 854 25.22 16.3 61.3 31 -0.9 30.4
10:40 1025 30.27 854 25.22 16.4 61.5 31 -0.8 30.6
10:45 1025 30.27 854 25.22 16.5 61.7 31 -0.5 31.1
10:50 1025 30.27 855 25.25 16.2 61.2 32 -0.4 31.2
10:55 1025 30.27 854 25.22 16.2 61.2 32 -0.5 31.2
11:00 1025 30.27 854 25.22 16.1 61 33 -0.1 31.8
11:05 1025 30.27 854 25.22 15.8 60.4 32 -0.6 31
11:10 1025 30.27 854 25.22 16.3 61.4 33 0.1 32.1
11:15 1025 30.27 854 25.22 16.1 61.1 33 -0.2 31.7
11:20 1025 30.27 854 25.22 16.7 62 33 0.3 32.5
11:25 1025 30.27 854 25.22 16.1 61 33 -0.2 31.6
11:30 1025 30.27 854 25.22 16.7 62 33 0.3 32.5
11:35 1025 30.27 854 25.22 16.9 62.3 32 0.2 32.4
11:40 1025 30.27 854 25.22 16.8 62.2 33 0.6 33
11:45 1025 30.27 854 25.22 17.1 62.8 32 0.3 32.5
11:50 1025 30.27 854 25.22 17.4 63.4 31 0.1 32.2
11:55 1025 30.27 854 25.22 17.4 63.4 31 0.1 32.2
12:00 1025 30.27 854 25.22 17.2 62.9 31 0.1 32.2
12:05 1025 30.27 854 25.22 17.5 63.6 28 -0.8 30.5
12:10 1025 30.27 854 25.22 17.3 63.1 30 -0.4 31.3
12:15 1025 30.27 854 25.22 17.4 63.4 30 -0.3 31.5
12:20 1025 30.27 854 25.22 17 62.6 30 -0.5 31.1
12:25 1025 30.27 854 25.22 17.8 64.1 29 -0.1 31.8
12:30 1025 30.27 854 25.22 18 64.4 31 0.9 33.6
12:35 1025 30.27 854 25.22 18.1 64.6 30 0.2 32.3
12:40 1025 30.27 854 25.22 18 64.4 29 -0.1 31.9
12:45 1025 30.27 854 25.22 17.8 64.1 31 0.5 32.9
12:50 1025 30.27 854 25.22 18.1 64.6 30 0.5 32.8
12:55 1025 30.27 854 25.22 18.1 64.5 30 0.2 32.4
13:00 1025 30.27 854 25.22 18.7 65.6 29 0.4 32.7
13:05 1025 30.27 854 25.22 18.8 65.9 28 0.2 32.4
13:10 1025 30.27 854 25.22 19 66.1 28 0.3 32.5
13:15 1025 30.27 854 25.22 19.8 67.6 26 0 32.1
13:20 1025 30.27 854 25.22 19.8 67.6 27 0.6 33.1
13:25 1025 30.27 854 25.22 17.2 62.9 43 4.6 40.3
13:30 1025 30.27 854 25.22 14.5 58.1 50 4.2 39.6
13:35 1025 30.27 854 25.22 13.7 56.6 52 4 39.2
13:40 1025 30.27 854 25.22 13.3 56 54 4.3 39.8
13:45 1025 30.27 854 25.22 12.9 55.2 56 4.5 40.1
13:50 1025 30.27 854 25.22 12.1 53.8 59 4.3 39.7
13:55 1025 30.27 854 25.22 12.2 54 58 4.3 39.7
14:00 1025 30.27 854 25.22 12 53.5 60 4.6 40.2
14:05 1025 30.27 854 25.22 12.2 53.9 63 5.3 41.6
14:10 1025 30.27 854 25.22 11.7 53.1 61 4.6 40.3
14:15 1025 30.27 854 25.22 12 53.6 57 3.9 39
14:20 1025 30.27 854 25.22 12.9 55.2 52 3.5 38.2
14:25 1025 30.27 854 25.22 13.6 56.5 51 3.7 38.6
14:30 1025 30.27 854 25.22 13.3 56 53 3.9 39
14:35 1025 30.27 854 25.22 13.1 55.5 54 4.1 39.3
14:40 1025 30.27 854 25.22 13.2 55.8 54 4.1 39.4
14:45 1025 30.27 854 25.22 13.3 56 54 4.3 39.8
14:50 1025 30.27 854 25.22 14 57.1 48 3.3 37.9
14:55 1025 30.27 854 25.22 14.5 58.2 49 3.9 39
15:00 1025 30.27 854 25.22 14.6 58.2 47 3.5 38.3
15:05 1025 30.27 854 25.22 14.8 58.6 46 3.5 38.3
15:10 1025 30.27 854 25.22 14.8 58.6 47 3.7 38.7
15:15 1025 30.27 854 25.22 14.7 58.4 47 3.7 38.7
15:20 1025 30.27 854 25.22 14.6 58.4 47 3.5 38.3
15:25 1025 30.27 854 25.22 14.7 58.5 47 3.6 38.5
15:30 1025 30.27 854 25.22 15.1 59.1 44 2.9 37.2
15:35 1025 30.27 854 25.22 15.3 59.6 45 3.6 38.5
15:40 1025 30.27 854 25.22 15.6 60.1 43 3.3 37.9
15:45 1025 30.27 854 25.22 16.1 61 39 2.4 36.3
15:50 1025 30.27 854 25.22 16 60.8 40 2.6 36.8
15:55 1025 30.27 854 25.22 16.8 62.2 40 3 37.5
16:00 1025 30.27 854 25.22 16.2 61.1 39 2.4 36.4
16:05 1025 30.27 854 25.22 16.3 61.3 40 2.7 36.9
16:10 1025 30.27 854 25.22 15.8 60.5 43 3.3 37.9
16:15 1025 30.27 854 25.22 15.6 60 43 3.1 37.6
16:20 1025 30.27 854 25.22 15.5 59.9 45 3.7 38.6
16:25 1025 30.27 854 25.22 15.6 60 42 2.8 37.1
16:30 1025 30.27 854 25.22 15.5 59.9 43 3.2 37.7
16:35 1025 30.27 854 25.22 15.7 60.2 41 2.6 36.6
16:40 1025 30.27 854 25.22 15.8 60.4 40 2.4 36.4
16:45 1025 30.27 854 25.22 16.3 61.4 38 2.1 35.9
16:50 1025 30.27 854 25.22 16.5 61.8 38 2.1 35.8
16:55 1025 30.27 854 25.22 16.5 61.7 39 2.7 36.8
17:00 1025 30.27 854 25.22 17 62.6 39 3 37.3
17:05 1025 30.27 854 25.22 17.1 62.7 36 2 35.7
17:10 1025 30.27 854 25.22 17.5 63.5 35 2.2 35.9
17:15 1025 30.27 854 25.22 17.2 62.9 37 2.5 36.5
17:20 1025 30.27 854 25.22 17.3 63.1 36 2.2 36
17:25 1025 30.27 854 25.22 17.3 63.1 36 2.1 35.8
17:30 1025 30.27 854 25.22 17 62.6 38 2.7 36.8
17:35 1025 30.27 854 25.22 17.4 63.3 37 2.7 36.8
17:40 1025 30.27 854 25.22 18.1 64.5 34 2.1 35.9
17:45 1025 30.27 854 25.22 17.4 63.3 36 2.4 36.3
17:50 1025 30.27 854 25.22 17 62.5 38 2.6 36.7
17:55 1025 30.27 854 25.22 16.9 62.4 36 1.7 35
18:00 1025 30.27 854 25.22 17 62.7 37 2.2 36
18:05 1025 30.27 854 25.22 16.9 62.4 39 3 37.4
18:10 1025 30.27 854 25.22 16.3 61.4 40 2.9 37.3
18:15 1025 30.27 854 25.22 16.3 61.4 41 3.3 37.9
18:20 1025 30.27 854 25.22 15.9 60.7 41 2.7 36.9
18:25 1025 30.27 854 25.22 15.9 60.6 41 2.7 36.9
18:30 1025 30.27 854 25.22 16 60.8 42 3 37.4
18:35 1025 30.27 854 25.22 16 60.7 41 2.7 36.9
18:40 1025 30.27 854 25.22 15.9 60.5 40 2.5 36.4
18:45 1025 30.27 854 25.22 16 60.7 39 2 35.5
18:50 1025 30.27 854 25.22 16 60.7 39 2 35.6
18:55 1025 30.27 854 25.22 15.9 60.6 39 2 35.6
19:00 1025 30.27 854 25.22 16.1 60.9 39 2.1 35.7
19:05 1025 30.27 854 25.22 16.2 61.2 40 2.7 36.9
19:10 1025 30.27 854 25.22 16.2 61.1 38 2 35.6
19:15 1025 30.27 854 25.22 15.9 60.6 38 1.6 34.9
19:20 1025 30.27 854 25.22 15.9 60.7 39 2 35.6
19:25 1025 30.27 854 25.22 16 60.8 39 2.2 35.9
19:30 1025 30.27 854 25.22 16.1 60.9 40 2.6 36.6
19:35 1025 30.27 854 25.22 16.1 60.9 40 2.6 36.7
19:40 1025 30.27 854 25.22 16.1 61 38 2 35.6
19:45 1025 30.27 854 25.22 16 60.8 38 1.9 35.4
19:50 1025 30.27 854 25.22 15.9 60.7 39 2.2 36
19:55 1025 30.27 854 25.22 15.9 60.7 39 2 35.5
20:00 1025 30.27 854 25.22 16 60.7 36 1.2 34.2
20:05 1025 30.27 854 25.22 15.9 60.6 37 1.3 34.4
20:10 1025 30.27 854 25.22 15.8 60.5 37 1.3 34.3
20:15 1025 30.27 854 25.22 15.8 60.4 39 2.1 35.8
20:20 1025 30.27 854 25.22 15.8 60.5 39 1.9 35.4
20:25 1025 30.27 854 25.22 15.8 60.4 39 1.9 35.5
20:30 1025 30.27 854 25.22 15.8 60.5 39 2.1 35.8
20:35 1025 30.27 854 25.22 15.9 60.6 36 1.1 34.1
20:40 1025 30.27 854 25.22 15.8 60.4 39 1.8 35.2
20:45 1025 30.27 854 25.22 15.5 60 39 1.7 35.1
20:50 1025 30.27 854 25.22 15.3 59.6 43 2.8 37
20:55 1025 30.27 854 25.22 14.9 58.8 45 3.2 37.8
21:00 1025 30.27 854 25.22 14.6 58.2 47 3.5 38.2
21:05 1025 30.27 854 25.22 14.2 57.5 48 3.5 38.3
21:10 1025 30.27 854 25.22 13.7 56.7 51 3.9 39.1
21:15 1025 30.27 854 25.22 13.4 56 52 3.9 39
21:20 1025 30.27 854 25.22 13.1 55.7 54 4.1 39.3
21:25 1025 30.27 854 25.22 13 55.4 52 3.4 38.1
21:30 1025 30.27 854 25.22 13 55.4 50 2.8 37
21:35 1025 30.27 854 25.22 13.1 55.5 49 2.8 37
21:40 1025 30.27 854 25.22 13 55.3 50 2.8 37
21:45 1025 30.27 854 25.22 12.8 55.1 51 3 37.3
21:50 1025 30.27 854 25.22 12.7 54.9 51 2.9 37.3
21:55 1025 30.27 854 25.22 12.4 54.4 51 2.6 36.7
22:00 1025 30.27 854 25.22 12.1 53.8 50 2.2 35.9
22:05 1025 30.27 854 25.22 11.8 53.3 52 2.3 36.1
22:10 1025 30.27 854 25.22 11.5 52.7 53 2.4 36.3
22:15 1025 30.27 854 25.22 11.6 52.8 51 1.7 35.1
22:20 1025 30.27 854 25.22 12 53.6 52 2.4 36.3
22:25 1025 30.27 854 25.22 11.7 53 52 2.3 36.2
22:30 1025 30.27 854 25.22 11.3 52.4 54 2.4 36.4
22:35 1025 30.27 854 25.22 11.1 52 51 1.3 34.3
22:40 1025 30.27 854 25.22 11.3 52.3 49 1.1 33.9
22:45 1025 30.27 854 25.22 11.2 52.2 51 1.4 34.5
22:50 1025 30.27 854 25.22 11 51.9 52 1.6 34.8
22:55 1025 30.27 854 25.22 10.8 51.4 54 1.9 35.4
23:00 1025 30.27 854 25.22 10.5 51 54 1.8 35.2
23:05 1025 30.27 854 25.22 10.3 50.6 55 1.7 35.1
23:10 1025 30.27 854 25.22 10.1 50.2 56 1.9 35.3
23:15 1025 30.27 854 25.22 10 49.9 56 1.7 35
23:20 1025 30.27 854 25.22 9.9 49.8 55 1.4 34.6
23:25 1025 30.27 854 25.22 10 50 53 1 33.8
23:30 1025 30.27 854 25.22 10.3 50.5 53 1.2 34.2
23:35 1025 30.27 854 25.22 10.2 50.3 53 1 33.8
23:40 1025 30.27 854 25.22 10 50.1 54 1.1 34
23:45 1025 30.27 854 25.22 9.8 49.6 53 0.7 33.2
23:50 1025 30.27 854 25.22 10.2 50.4 48 -0.1 31.8
23:55 1025 30.27 854 25.22 10.9 51.5 49 0.5 33
24:00 1025 30.27 854 25.22 10.5 50.8 52 1.1 34